sensor_id;sensor_type;location;lat;lon;timestamp;pressure;altitude;pressure_sealevel;temperature;humidity
45255;BME280;30989;52.078;21.014;2022-08-21T00:01:11;169186.06;;;20.62;85.38
45255;BME280;30989;52.078;21.014;2022-08-21T00:03:38;169169.91;;;20.56;85.09
45255;BME280;30989;52.078;21.014;2022-08-21T00:06:07;169169.91;;;20.56;87.05
45255;BME280;30989;52.078;21.014;2022-08-21T00:08:32;169155.09;;;20.50;86.35
45255;BME280;30989;52.078;21.014;2022-08-21T00:10:58;169148.34;;;20.48;86.33
45255;BME280;30989;52.078;21.014;2022-08-21T00:13:23;169126.81;;;20.40;88.36
45255;BME280;30989;52.078;21.014;2022-08-21T00:15:49;169121.38;;;20.38;87.62
45255;BME280;30989;52.078;21.014;2022-08-21T00:18:15;169110.59;;;20.34;87.64
45255;BME280;30989;52.078;21.014;2022-08-21T00:20:41;169095.78;;;20.28;88.19
45255;BME280;30989;52.078;21.014;2022-08-21T00:23:08;169078.25;;;20.21;90.47
45255;BME280;30989;52.078;21.014;2022-08-21T00:25:33;169067.50;;;20.17;89.36
45255;BME280;30989;52.078;21.014;2022-08-21T00:27:59;169059.41;;;20.14;89.27
45255;BME280;30989;52.078;21.014;2022-08-21T00:30:27;169045.94;;;20.09;89.74
45255;BME280;30989;52.078;21.014;2022-08-21T00:32:55;169039.22;;;20.07;90.25
45255;BME280;30989;52.078;21.014;2022-08-21T00:35:25;169036.50;;;20.06;90.28
45255;BME280;30989;52.078;21.014;2022-08-21T00:37:51;169028.44;;;20.03;90.46
45255;BME280;30989;52.078;21.014;2022-08-21T00:40:20;169032.47;;;20.04;91.06
45255;BME280;30989;52.078;21.014;2022-08-21T00:42:47;169005.53;;;19.94;90.48
45255;BME280;30989;52.078;21.014;2022-08-21T00:45:12;169002.84;;;19.93;90.38
45255;BME280;30989;52.078;21.014;2022-08-21T00:47:38;169023.03;;;20.01;90.59
45255;BME280;30989;52.078;21.014;2022-08-21T00:50:06;169019.00;;;19.99;90.32
45255;BME280;30989;52.078;21.014;2022-08-21T00:52:36;169008.22;;;19.95;90.89
45255;BME280;30989;52.078;21.014;2022-08-21T00:55:04;168996.13;;;19.90;91.53
45255;BME280;30989;52.078;21.014;2022-08-21T00:57:35;168981.31;;;19.85;92.60
45255;BME280;30989;52.078;21.014;2022-08-21T01:00:06;168965.13;;;19.79;92.68
45255;BME280;30989;52.078;21.014;2022-08-21T01:02:32;168959.75;;;19.77;92.55
45255;BME280;30989;52.078;21.014;2022-08-21T01:04:58;168944.94;;;19.71;93.00
45255;BME280;30989;52.078;21.014;2022-08-21T01:07:24;168939.56;;;19.69;93.04
45255;BME280;30989;52.078;21.014;2022-08-21T01:09:50;168923.41;;;19.63;93.32
45255;BME280;30989;52.078;21.014;2022-08-21T01:12:17;168913.97;;;19.59;93.57
45255;BME280;30989;52.078;21.014;2022-08-21T01:14:43;168922.06;;;19.62;93.96
45255;BME280;30989;52.078;21.014;2022-08-21T01:17:11;168913.97;;;19.59;93.89
45255;BME280;30989;52.078;21.014;2022-08-21T01:19:38;168915.31;;;19.60;93.77
45255;BME280;30989;52.078;21.014;2022-08-21T01:22:04;168915.31;;;19.60;94.00
45255;BME280;30989;52.078;21.014;2022-08-21T01:24:30;168911.28;;;19.58;93.73
45255;BME280;30989;52.078;21.014;2022-08-21T01:26:57;168905.91;;;19.56;93.97
45255;BME280;30989;52.078;21.014;2022-08-21T01:29:43;168900.50;;;19.54;94.15
45255;BME280;30989;52.078;21.014;2022-08-21T01:32:12;168881.63;;;19.47;94.44
45255;BME280;30989;52.078;21.014;2022-08-21T01:34:41;168874.88;;;19.45;94.69
45255;BME280;30989;52.078;21.014;2022-08-21T01:37:06;168885.66;;;19.49;94.69
45255;BME280;30989;52.078;21.014;2022-08-21T01:39:32;168876.22;;;19.45;95.15
45255;BME280;30989;52.078;21.014;2022-08-21T01:41:58;168872.19;;;19.44;95.48
45255;BME280;30989;52.078;21.014;2022-08-21T01:44:24;168857.38;;;19.38;95.27
45255;BME280;30989;52.078;21.014;2022-08-21T01:46:51;168852.00;;;19.36;96.41
45255;BME280;30989;52.078;21.014;2022-08-21T01:49:17;168842.56;;;19.32;96.25
45255;BME280;30989;52.078;21.014;2022-08-21T01:51:43;168829.09;;;19.27;96.38
45255;BME280;30989;52.078;21.014;2022-08-21T01:54:09;168825.06;;;19.26;97.60
45255;BME280;30989;52.078;21.014;2022-08-21T01:56:40;168819.69;;;19.24;96.96
45255;BME280;30989;52.078;21.014;2022-08-21T01:59:07;168822.38;;;19.25;96.87
45255;BME280;30989;52.078;21.014;2022-08-21T02:01:33;168814.28;;;19.22;97.04
45255;BME280;30989;52.078;21.014;2022-08-21T02:03:58;168803.53;;;19.18;97.52
45255;BME280;30989;52.078;21.014;2022-08-21T02:06:25;168798.16;;;19.16;98.15
45255;BME280;30989;52.078;21.014;2022-08-21T02:08:51;168782.00;;;19.10;97.93
45255;BME280;30989;52.078;21.014;2022-08-21T02:11:20;168782.00;;;19.10;98.77
45255;BME280;30989;52.078;21.014;2022-08-21T02:14:05;168771.22;;;19.06;99.11
45255;BME280;30989;52.078;21.014;2022-08-21T02:16:30;168765.84;;;19.04;98.88
45255;BME280;30989;52.078;21.014;2022-08-21T02:18:58;168752.38;;;18.98;98.77
45255;BME280;30989;52.078;21.014;2022-08-21T02:21:24;168757.75;;;19.00;98.76
45255;BME280;30989;52.078;21.014;2022-08-21T02:23:50;168765.84;;;19.04;98.77
45255;BME280;30989;52.078;21.014;2022-08-21T02:26:16;168755.06;;;18.99;98.66
45255;BME280;30989;52.078;21.014;2022-08-21T02:28:41;168748.34;;;18.97;98.92
45255;BME280;30989;52.078;21.014;2022-08-21T02:31:11;168752.38;;;18.98;99.89
45255;BME280;30989;52.078;21.014;2022-08-21T02:33:40;168744.31;;;18.95;100.00
45255;BME280;30989;52.078;21.014;2022-08-21T02:36:07;168728.16;;;18.89;100.00
45255;BME280;30989;52.078;21.014;2022-08-21T02:38:34;168710.66;;;18.83;100.00
45255;BME280;30989;52.078;21.014;2022-08-21T02:41:03;168695.84;;;18.77;100.00
45255;BME280;30989;52.078;21.014;2022-08-21T02:43:29;168697.19;;;18.78;100.00
45255;BME280;30989;52.078;21.014;2022-08-21T02:45:56;168674.31;;;18.69;100.00
45255;BME280;30989;52.078;21.014;2022-08-21T02:48:25;168693.16;;;18.76;100.00
45255;BME280;30989;52.078;21.014;2022-08-21T02:50:57;168695.84;;;18.77;100.00
45255;BME280;30989;52.078;21.014;2022-08-21T02:53:23;168693.16;;;18.76;100.00
45255;BME280;30989;52.078;21.014;2022-08-21T02:55:50;168691.81;;;18.76;100.00
45255;BME280;30989;52.078;21.014;2022-08-21T02:58:18;168689.13;;;18.75;100.00
45255;BME280;30989;52.078;21.014;2022-08-21T03:00:45;168690.47;;;18.75;100.00
45255;BME280;30989;52.078;21.014;2022-08-21T03:03:11;168677.00;;;18.70;100.00
45255;BME280;30989;52.078;21.014;2022-08-21T03:05:37;168659.50;;;18.63;100.00
45255;BME280;30989;52.078;21.014;2022-08-21T03:08:07;168666.25;;;18.66;100.00
45255;BME280;30989;52.078;21.014;2022-08-21T03:10:42;168672.97;;;18.68;100.00
45255;BME280;30989;52.078;21.014;2022-08-21T03:13:08;168650.03;;;18.60;100.00
45255;BME280;30989;52.078;21.014;2022-08-21T03:15:34;168647.34;;;18.59;100.00
45255;BME280;30989;52.078;21.014;2022-08-21T03:18:01;168637.94;;;18.55;100.00
45255;BME280;30989;52.078;21.014;2022-08-21T03:20:27;168619.09;;;18.48;100.00
45255;BME280;30989;52.078;21.014;2022-08-21T03:22:54;168620.44;;;18.49;100.00
45255;BME280;30989;52.078;21.014;2022-08-21T03:25:21;168605.63;;;18.43;100.00
45255;BME280;30989;52.078;21.014;2022-08-21T03:27:48;168615.06;;;18.47;100.00
45255;BME280;30989;52.078;21.014;2022-08-21T03:30:18;168585.44;;;18.35;100.00
45255;BME280;30989;52.078;21.014;2022-08-21T03:32:46;168590.84;;;18.38;100.00
45255;BME280;30989;52.078;21.014;2022-08-21T03:35:11;168598.91;;;18.41;100.00
45255;BME280;30989;52.078;21.014;2022-08-21T03:37:38;168577.38;;;18.32;100.00
45255;BME280;30989;52.078;21.014;2022-08-21T03:40:05;168581.41;;;18.34;100.00
45255;BME280;30989;52.078;21.014;2022-08-21T03:42:31;168586.81;;;18.36;100.00
45255;BME280;30989;52.078;21.014;2022-08-21T03:44:56;168592.19;;;18.38;100.00
45255;BME280;30989;52.078;21.014;2022-08-21T03:47:22;168593.53;;;18.39;100.00
45255;BME280;30989;52.078;21.014;2022-08-21T03:49:48;168598.91;;;18.41;100.00
45255;BME280;30989;52.078;21.014;2022-08-21T03:52:13;168620.44;;;18.49;100.00
45255;BME280;30989;52.078;21.014;2022-08-21T03:54:39;168635.25;;;18.54;100.00
45255;BME280;30989;52.078;21.014;2022-08-21T03:57:06;168632.56;;;18.53;100.00
45255;BME280;30989;52.078;21.014;2022-08-21T03:59:31;168636.59;;;18.55;100.00
45255;BME280;30989;52.078;21.014;2022-08-21T04:01:59;168633.91;;;18.54;100.00
45255;BME280;30989;52.078;21.014;2022-08-21T04:04:27;168615.06;;;18.47;100.00
45255;BME280;30989;52.078;21.014;2022-08-21T04:06:53;168594.88;;;18.39;100.00
45255;BME280;30989;52.078;21.014;2022-08-21T04:09:19;168588.16;;;18.36;100.00
45255;BME280;30989;52.078;21.014;2022-08-21T04:11:44;168577.38;;;18.32;100.00
45255;BME280;30989;52.078;21.014;2022-08-21T04:14:11;168558.53;;;18.25;100.00
45255;BME280;30989;52.078;21.014;2022-08-21T04:16:37;168578.72;;;18.33;100.00
45255;BME280;30989;52.078;21.014;2022-08-21T04:19:03;168578.72;;;18.33;100.00
45255;BME280;30989;52.078;21.014;2022-08-21T04:21:29;168574.69;;;18.31;100.00
45255;BME280;30989;52.078;21.014;2022-08-21T04:23:55;168582.75;;;18.34;100.00
45255;BME280;30989;52.078;21.014;2022-08-21T04:26:21;168588.16;;;18.36;100.00
45255;BME280;30989;52.078;21.014;2022-08-21T04:28:46;168608.31;;;18.44;100.00
45255;BME280;30989;52.078;21.014;2022-08-21T04:31:12;168625.81;;;18.51;100.00
45255;BME280;30989;52.078;21.014;2022-08-21T04:33:37;168640.63;;;18.56;100.00
45255;BME280;30989;52.078;21.014;2022-08-21T04:36:04;168636.59;;;18.55;100.00
45255;BME280;30989;52.078;21.014;2022-08-21T04:38:29;168643.31;;;18.57;100.00
45255;BME280;30989;52.078;21.014;2022-08-21T04:40:57;168647.34;;;18.59;100.00
45255;BME280;30989;52.078;21.014;2022-08-21T04:43:22;168651.38;;;18.60;100.00
45255;BME280;30989;52.078;21.014;2022-08-21T04:45:49;168640.63;;;18.56;100.00
45255;BME280;30989;52.078;21.014;2022-08-21T04:48:20;168640.63;;;18.56;100.00
45255;BME280;30989;52.078;21.014;2022-08-21T04:50:53;168639.28;;;18.56;100.00
45255;BME280;30989;52.078;21.014;2022-08-21T04:55:54;168683.75;;;18.73;100.00
45255;BME280;30989;52.078;21.014;2022-08-21T04:58:22;168691.81;;;18.76;100.00
45255;BME280;30989;52.078;21.014;2022-08-21T05:00:53;168714.69;;;18.84;100.00
45255;BME280;30989;52.078;21.014;2022-08-21T05:03:19;168718.72;;;18.86;100.00
45255;BME280;30989;52.078;21.014;2022-08-21T05:05:46;168728.16;;;18.89;100.00
45255;BME280;30989;52.078;21.014;2022-08-21T05:08:16;168741.59;;;18.94;100.00
45255;BME280;30989;52.078;21.014;2022-08-21T05:10:44;168764.50;;;19.03;100.00
45255;BME280;30989;52.078;21.014;2022-08-21T05:13:11;168777.97;;;19.08;100.00
45255;BME280;30989;52.078;21.014;2022-08-21T05:15:39;168811.59;;;19.21;100.00
45255;BME280;30989;52.078;21.014;2022-08-21T05:18:04;168827.75;;;19.27;100.00
45255;BME280;30989;52.078;21.014;2022-08-21T05:20:31;168826.41;;;19.26;100.00
45255;BME280;30989;52.078;21.014;2022-08-21T05:22:59;168842.56;;;19.32;100.00
45255;BME280;30989;52.078;21.014;2022-08-21T05:25:25;168868.16;;;19.42;100.00
45255;BME280;30989;52.078;21.014;2022-08-21T05:27:51;168876.22;;;19.45;100.00
45255;BME280;30989;52.078;21.014;2022-08-21T05:30:16;168916.66;;;19.60;100.00
45255;BME280;30989;52.078;21.014;2022-08-21T05:32:42;168954.38;;;19.75;100.00
45255;BME280;30989;52.078;21.014;2022-08-21T05:35:08;168992.06;;;19.89;100.00
45255;BME280;30989;52.078;21.014;2022-08-21T05:37:34;169019.00;;;19.99;100.00
45255;BME280;30989;52.078;21.014;2022-08-21T05:40:00;169029.78;;;20.03;99.48
45255;BME280;30989;52.078;21.014;2022-08-21T05:42:26;169024.41;;;20.01;98.92
45255;BME280;30989;52.078;21.014;2022-08-21T05:44:53;168994.75;;;19.90;99.34
45255;BME280;30989;52.078;21.014;2022-08-21T05:47:18;169025.75;;;20.02;99.60
45255;BME280;30989;52.078;21.014;2022-08-21T05:49:44;169045.94;;;20.09;99.81
45255;BME280;30989;52.078;21.014;2022-08-21T05:52:09;169079.63;;;20.22;99.62
45255;BME280;30989;52.078;21.014;2022-08-21T05:54:37;169101.16;;;20.30;99.23
45255;BME280;30989;52.078;21.014;2022-08-21T05:57:03;169121.38;;;20.38;99.13
45255;BME280;30989;52.078;21.014;2022-08-21T05:59:28;169140.28;;;20.45;98.67
45255;BME280;30989;52.078;21.014;2022-08-21T06:01:54;169153.75;;;20.50;98.58
45255;BME280;30989;52.078;21.014;2022-08-21T06:04:19;169188.78;;;20.63;98.38
45255;BME280;30989;52.078;21.014;2022-08-21T06:06:45;169234.63;;;20.80;97.74
45255;BME280;30989;52.078;21.014;2022-08-21T06:09:12;169262.91;;;20.91;97.18
45255;BME280;30989;52.078;21.014;2022-08-21T06:11:40;169299.31;;;21.05;96.36
45255;BME280;30989;52.078;21.014;2022-08-21T06:14:06;169324.91;;;21.14;96.56
45255;BME280;30989;52.078;21.014;2022-08-21T06:16:32;169345.16;;;21.22;95.92
45255;BME280;30989;52.078;21.014;2022-08-21T06:18:57;169372.13;;;21.32;95.51
45255;BME280;30989;52.078;21.014;2022-08-21T06:21:23;169377.50;;;21.34;95.19
45255;BME280;30989;52.078;21.014;2022-08-21T06:23:51;169386.94;;;21.38;93.32
45255;BME280;30989;52.078;21.014;2022-08-21T06:26:16;169328.94;;;21.16;93.37
45255;BME280;30989;52.078;21.014;2022-08-21T06:28:42;169310.09;;;21.09;94.26
45255;BME280;30989;52.078;21.014;2022-08-21T06:31:14;169299.31;;;21.05;94.45
45255;BME280;30989;52.078;21.014;2022-08-21T06:33:40;169277.75;;;20.97;94.42
45255;BME280;30989;52.078;21.014;2022-08-21T06:36:05;169268.31;;;20.93;95.38
45255;BME280;30989;52.078;21.014;2022-08-21T06:38:31;169280.44;;;20.98;95.45
45255;BME280;30989;52.078;21.014;2022-08-21T06:40:57;169293.91;;;21.03;95.49
45255;BME280;30989;52.078;21.014;2022-08-21T06:43:22;169328.94;;;21.16;95.83
45255;BME280;30989;52.078;21.014;2022-08-21T06:45:48;169347.88;;;21.23;95.42
45255;BME280;30989;52.078;21.014;2022-08-21T06:48:13;169382.91;;;21.36;95.29
45255;BME280;30989;52.078;21.014;2022-08-21T06:50:39;169411.19;;;21.47;95.09
45255;BME280;30989;52.078;21.014;2022-08-21T06:53:08;169443.56;;;21.59;94.14
45255;BME280;30989;52.078;21.014;2022-08-21T06:55:35;169459.72;;;21.65;94.77
45255;BME280;30989;52.078;21.014;2022-08-21T06:58:01;169500.16;;;21.80;94.46
45255;BME280;30989;52.078;21.014;2022-08-21T07:00:28;169537.91;;;21.95;93.66
45255;BME280;30989;52.078;21.014;2022-08-21T07:02:53;169550.03;;;21.99;92.45
45255;BME280;30989;52.078;21.014;2022-08-21T07:05:19;169560.88;;;22.03;92.82
45255;BME280;30989;52.078;21.014;2022-08-21T07:07:45;169577.06;;;22.09;91.65
45255;BME280;30989;52.078;21.014;2022-08-21T07:10:11;169531.16;;;21.92;91.05
45255;BME280;30989;52.078;21.014;2022-08-21T07:12:39;169498.81;;;21.80;91.32
45255;BME280;30989;52.078;21.014;2022-08-21T07:15:05;169497.47;;;21.79;91.97
45255;BME280;30989;52.078;21.014;2022-08-21T07:17:31;169512.28;;;21.85;92.17
45255;BME280;30989;52.078;21.014;2022-08-21T07:19:56;169523.09;;;21.89;92.49
45255;BME280;30989;52.078;21.014;2022-08-21T07:22:23;169566.28;;;22.05;92.29
45255;BME280;30989;52.078;21.014;2022-08-21T07:24:52;169612.09;;;22.23;92.30
45255;BME280;30989;52.078;21.014;2022-08-21T07:27:17;169657.94;;;22.40;91.30
45255;BME280;30989;52.078;21.014;2022-08-21T07:29:46;169668.75;;;22.44;91.05
45255;BME280;30989;52.078;21.014;2022-08-21T07:32:12;169694.38;;;22.54;90.63
45255;BME280;30989;52.078;21.014;2022-08-21T07:34:37;169741.56;;;22.71;90.61
45255;BME280;30989;52.078;21.014;2022-08-21T07:37:12;169773.97;;;22.83;90.60
45255;BME280;30989;52.078;21.014;2022-08-21T07:39:39;169800.97;;;22.94;89.93
45255;BME280;30989;52.078;21.014;2022-08-21T07:42:08;169833.31;;;23.06;90.13
45255;BME280;30989;52.078;21.014;2022-08-21T07:44:36;169868.41;;;23.19;88.62
45255;BME280;30989;52.078;21.014;2022-08-21T07:47:01;169888.63;;;23.27;88.52
45255;BME280;30989;52.078;21.014;2022-08-21T07:49:30;169899.41;;;23.31;87.79
45255;BME280;30989;52.078;21.014;2022-08-21T07:51:59;169898.06;;;23.30;87.89
45255;BME280;30989;52.078;21.014;2022-08-21T07:54:25;169935.84;;;23.44;87.89
45255;BME280;30989;52.078;21.014;2022-08-21T07:56:51;169957.44;;;23.53;87.31
45255;BME280;30989;52.078;21.014;2022-08-21T07:59:17;169966.94;;;23.56;87.54
45255;BME280;30989;52.078;21.014;2022-08-21T08:01:42;169999.31;;;23.68;86.91
45255;BME280;30989;52.078;21.014;2022-08-21T08:04:08;170018.19;;;23.75;86.61
45255;BME280;30989;52.078;21.014;2022-08-21T08:06:33;170041.13;;;23.84;86.46
45255;BME280;30989;52.078;21.014;2022-08-21T08:08:59;170033.03;;;23.81;83.48
45255;BME280;30989;52.078;21.014;2022-08-21T08:11:24;169970.97;;;23.58;83.79
45255;BME280;30989;52.078;21.014;2022-08-21T08:13:51;169954.72;;;23.52;85.59
45255;BME280;30989;52.078;21.014;2022-08-21T08:16:17;169980.41;;;23.61;85.61
45255;BME280;30989;52.078;21.014;2022-08-21T08:18:43;169989.84;;;23.65;84.51
45255;BME280;30989;52.078;21.014;2022-08-21T08:21:11;169968.28;;;23.57;82.80
45255;BME280;30989;52.078;21.014;2022-08-21T08:23:39;169927.75;;;23.41;83.99
45255;BME280;30989;52.078;21.014;2022-08-21T08:26:08;169923.69;;;23.40;84.57
45255;BME280;30989;52.078;21.014;2022-08-21T08:28:34;169902.13;;;23.32;84.58
45255;BME280;30989;52.078;21.014;2022-08-21T08:31:00;169941.25;;;23.46;85.62
45255;BME280;30989;52.078;21.014;2022-08-21T08:33:26;169991.22;;;23.65;85.87
45255;BME280;30989;52.078;21.014;2022-08-21T08:35:53;170038.44;;;23.83;85.45
45255;BME280;30989;52.078;21.014;2022-08-21T08:38:20;170069.47;;;23.95;84.18
45255;BME280;30989;52.078;21.014;2022-08-21T08:41:22;170053.28;;;23.89;81.96
45255;BME280;30989;52.078;21.014;2022-08-21T08:43:48;170012.81;;;23.73;83.39
45255;BME280;30989;52.078;21.014;2022-08-21T08:46:16;170033.03;;;23.81;83.80
45255;BME280;30989;52.078;21.014;2022-08-21T08:49:00;170046.53;;;23.86;81.38
45255;BME280;30989;52.078;21.014;2022-08-21T08:51:40;170060.03;;;23.91;83.44
45255;BME280;30989;52.078;21.014;2022-08-21T08:54:11;170103.22;;;24.07;82.96
45255;BME280;30989;52.078;21.014;2022-08-21T08:56:39;170145.03;;;24.23;82.38
45255;BME280;30989;52.078;21.014;2022-08-21T08:59:23;170185.59;;;24.38;81.82
45255;BME280;30989;52.078;21.014;2022-08-21T09:01:51;170196.38;;;24.42;81.02
45255;BME280;30989;52.078;21.014;2022-08-21T09:04:22;170213.94;;;24.49;81.22
45255;BME280;30989;52.078;21.014;2022-08-21T09:20:53;170384.09;;;25.13;78.68
45255;BME280;30989;52.078;21.014;2022-08-21T09:23:41;170440.78;;;25.34;78.39
45255;BME280;30989;52.078;21.014;2022-08-21T09:26:14;170485.34;;;25.51;77.67
45255;BME280;30989;52.078;21.014;2022-08-21T09:28:41;170548.88;;;25.75;77.77
45255;BME280;30989;52.078;21.014;2022-08-21T09:31:27;170604.25;;;25.96;75.63
45255;BME280;30989;52.078;21.014;2022-08-21T09:34:01;170673.19;;;26.22;74.75
45255;BME280;30989;52.078;21.014;2022-08-21T09:36:48;170724.59;;;26.41;71.95
45255;BME280;30989;52.078;21.014;2022-08-21T09:39:26;170692.09;;;26.29;70.05
45255;BME280;30989;52.078;21.014;2022-08-21T09:42:04;170625.91;;;26.04;69.68
45255;BME280;30989;52.078;21.014;2022-08-21T09:44:32;170575.88;;;25.85;70.94
45255;BME280;30989;52.078;21.014;2022-08-21T09:46:59;170563.72;;;25.81;71.66
45255;BME280;30989;52.078;21.014;2022-08-21T09:49:32;170569.16;;;25.83;70.73
45255;BME280;30989;52.078;21.014;2022-08-21T09:51:59;170611.00;;;25.98;70.36
45255;BME280;30989;52.078;21.014;2022-08-21T09:54:35;170619.16;;;26.01;70.31
45255;BME280;30989;52.078;21.014;2022-08-21T09:59:52;170547.53;;;25.75;68.28
45255;BME280;30989;52.078;21.014;2022-08-21T10:02:31;170544.81;;;25.74;70.88
45255;BME280;30989;52.078;21.014;2022-08-21T10:07:43;170697.53;;;26.31;71.81
45255;BME280;30989;52.078;21.014;2022-08-21T10:10:18;170775.94;;;26.60;71.21
45255;BME280;30989;52.078;21.014;2022-08-21T10:18:41;171020.59;;;27.52;68.11
45255;BME280;30989;52.078;21.014;2022-08-21T10:21:19;171103.09;;;27.83;67.18
45255;BME280;30989;52.078;21.014;2022-08-21T10:45:29;171437.19;;;29.09;60.40
45255;BME280;30989;52.078;21.014;2022-08-21T10:48:07;171442.63;;;29.11;59.14
45255;BME280;30989;52.078;21.014;2022-08-21T10:53:15;171318.13;;;28.64;57.58
45255;BME280;30989;52.078;21.014;2022-08-21T10:58:23;171253.22;;;28.40;57.76
45255;BME280;30989;52.078;21.014;2022-08-21T11:01:19;171215.38;;;28.26;59.46
45255;BME280;30989;52.078;21.014;2022-08-21T11:03:51;171284.31;;;28.51;60.49
45255;BME280;30989;52.078;21.014;2022-08-21T11:06:27;171346.53;;;28.75;59.35
45255;BME280;30989;52.078;21.014;2022-08-21T11:08:58;171365.47;;;28.82;56.88
45255;BME280;30989;52.078;21.014;2022-08-21T11:11:53;171389.84;;;28.91;58.36
45255;BME280;30989;52.078;21.014;2022-08-21T11:14:45;171431.78;;;29.07;55.01
45255;BME280;30989;52.078;21.014;2022-08-21T11:17:16;171399.31;;;28.95;56.63
45255;BME280;30989;52.078;21.014;2022-08-21T11:19:57;171393.91;;;28.93;54.62
45255;BME280;30989;52.078;21.014;2022-08-21T11:22:49;171308.66;;;28.61;55.74
45255;BME280;30989;52.078;21.014;2022-08-21T11:25:25;171350.59;;;28.76;57.20
45255;BME280;30989;52.078;21.014;2022-08-21T11:28:24;171508.88;;;29.36;57.78
45255;BME280;30989;52.078;21.014;2022-08-21T11:39:35;171592.81;;;29.67;51.28
45255;BME280;30989;52.078;21.014;2022-08-21T11:42:29;171571.16;;;29.59;50.96
45255;BME280;30989;52.078;21.014;2022-08-21T11:50:45;171966.44;;;31.07;51.30
45255;BME280;30989;52.078;21.014;2022-08-21T11:53:21;172100.59;;;31.58;47.22
45255;BME280;30989;52.078;21.014;2022-08-21T11:55:59;172250.94;;;32.14;50.18
45255;BME280;30989;52.078;21.014;2022-08-21T11:58:32;172588.41;;;33.41;48.63
45255;BME280;30989;52.078;21.014;2022-08-21T12:01:08;172909.69;;;34.61;47.42
45255;BME280;30989;52.078;21.014;2022-08-21T12:03:37;172896.16;;;34.56;42.69
45255;BME280;30989;52.078;21.014;2022-08-21T12:06:07;172878.53;;;34.49;43.98
45255;BME280;30989;52.078;21.014;2022-08-21T12:08:40;172873.09;;;34.47;43.72
45255;BME280;30989;52.078;21.014;2022-08-21T12:16:35;172477.25;;;32.99;40.53
45255;BME280;30989;52.078;21.014;2022-08-21T12:21:29;171916.34;;;30.89;45.20
45255;BME280;30989;52.078;21.014;2022-08-21T12:24:03;171740.34;;;30.23;47.67
45255;BME280;30989;52.078;21.014;2022-08-21T12:29:31;171599.59;;;29.70;48.94
45255;BME280;30989;52.078;21.014;2022-08-21T12:34:35;171808.03;;;30.48;49.17
45255;BME280;30989;52.078;21.014;2022-08-21T12:37:16;172004.44;;;31.22;47.75
45255;BME280;30989;52.078;21.014;2022-08-21T12:39:46;172114.13;;;31.63;45.29
45255;BME280;30989;52.078;21.014;2022-08-21T12:42:27;172068.09;;;31.46;45.15
45255;BME280;30989;52.078;21.014;2022-08-21T12:45:02;172179.16;;;31.87;45.67
45255;BME280;30989;52.078;21.014;2022-08-21T12:48:22;172222.50;;;32.03;44.50
45255;BME280;30989;52.078;21.014;2022-08-21T12:50:42;172295.69;;;32.31;44.58
45255;BME280;30989;52.078;21.014;2022-08-21T12:53:23;172321.41;;;32.41;44.51
45255;BME280;30989;52.078;21.014;2022-08-21T12:55:51;172409.47;;;32.74;43.85
45255;BME280;30989;52.078;21.014;2022-08-21T12:58:23;172443.38;;;32.86;43.78
45255;BME280;30989;52.078;21.014;2022-08-21T13:00:52;172511.13;;;33.12;42.69
45255;BME280;30989;52.078;21.014;2022-08-21T13:03:18;172531.44;;;33.19;43.97
45255;BME280;30989;52.078;21.014;2022-08-21T13:05:44;172633.13;;;33.57;43.92
45255;BME280;30989;52.078;21.014;2022-08-21T13:08:11;172763.28;;;34.06;42.46
45255;BME280;30989;52.078;21.014;2022-08-21T13:10:39;172844.66;;;34.37;42.22
45255;BME280;30989;52.078;21.014;2022-08-21T13:13:09;172977.53;;;34.86;42.29
45255;BME280;30989;52.078;21.014;2022-08-21T13:15:40;173000.59;;;34.95;42.01
45255;BME280;30989;52.078;21.014;2022-08-21T13:18:06;173156.56;;;35.53;42.09
45255;BME280;30989;52.078;21.014;2022-08-21T13:20:35;173281.38;;;36.00;39.83
45255;BME280;30989;52.078;21.014;2022-08-21T13:23:19;173316.63;;;36.13;38.54
45255;BME280;30989;52.078;21.014;2022-08-21T13:25:45;173290.88;;;36.04;37.70
45255;BME280;30989;52.078;21.014;2022-08-21T13:28:12;173322.06;;;36.15;39.45
45255;BME280;30989;52.078;21.014;2022-08-21T13:30:46;173026.34;;;35.05;36.91
45255;BME280;30989;52.078;21.014;2022-08-21T13:33:15;172540.94;;;33.23;39.34
45255;BME280;30989;52.078;21.014;2022-08-21T13:38:34;171691.66;;;30.04;44.35
45255;BME280;30989;52.078;21.014;2022-08-21T13:41:08;171441.25;;;29.10;46.49
45255;BME280;30989;52.078;21.014;2022-08-21T13:43:37;171289.72;;;28.53;49.29
45255;BME280;30989;52.078;21.014;2022-08-21T13:46:10;171157.16;;;28.04;51.12
45255;BME280;30989;52.078;21.014;2022-08-21T13:48:44;171081.47;;;27.75;52.35
45255;BME280;30989;52.078;21.014;2022-08-21T13:51:14;171035.44;;;27.58;52.97
45255;BME280;30989;52.078;21.014;2022-08-21T13:58:51;171343.81;;;28.74;52.79
45255;BME280;30989;52.078;21.014;2022-08-21T14:01:31;171576.59;;;29.61;51.06
45255;BME280;30989;52.078;21.014;2022-08-21T14:04:04;171787.72;;;30.40;48.56
45255;BME280;30989;52.078;21.014;2022-08-21T14:06:34;171785.03;;;30.39;48.11
45255;BME280;30989;52.078;21.014;2022-08-21T14:09:09;171774.19;;;30.35;47.69
45255;BME280;30989;52.078;21.014;2022-08-21T14:11:36;171808.03;;;30.48;47.25
45255;BME280;30989;52.078;21.014;2022-08-21T14:16:45;171874.41;;;30.73;48.66
45255;BME280;30989;52.078;21.014;2022-08-21T14:19:19;171978.63;;;31.12;46.33
45255;BME280;30989;52.078;21.014;2022-08-21T14:21:46;171955.63;;;31.03;46.23